sensor_id;sensor_type;location;lat;lon;timestamp;pressure;altitude;pressure_sealevel;temperature;humidity
40954;BME280;26686;50.130;8.710;2023-02-01T00:04:54;100616.19;;;6.15;91.34
40954;BME280;26686;50.130;8.710;2023-02-01T00:09:56;100621.47;;;6.15;91.26
40954;BME280;26686;50.130;8.710;2023-02-01T00:14:57;100605.53;;;6.16;90.71
40954;BME280;26686;50.130;8.710;2023-02-01T00:19:59;100623.38;;;6.13;90.30
40954;BME280;26686;50.130;8.710;2023-02-01T00:25:01;100616.19;;;6.15;90.61
40954;BME280;26686;50.130;8.710;2023-02-01T00:30:02;100609.53;;;6.24;90.41
40954;BME280;26686;50.130;8.710;2023-02-01T00:35:04;100606.38;;;6.17;89.64
40954;BME280;26686;50.130;8.710;2023-02-01T00:40:06;100605.63;;;6.15;90.02
40954;BME280;26686;50.130;8.710;2023-02-01T00:45:09;100609.00;;;6.17;89.39
40954;BME280;26686;50.130;8.710;2023-02-01T00:50:10;100609.53;;;6.08;89.88
40954;BME280;26686;50.130;8.710;2023-02-01T00:55:12;100595.31;;;6.10;89.82
40954;BME280;26686;50.130;8.710;2023-02-01T01:00:14;100593.50;;;6.11;90.20
40954;BME280;26686;50.130;8.710;2023-02-01T01:05:15;100607.25;;;6.17;89.80
40954;BME280;26686;50.130;8.710;2023-02-01T01:10:17;100608.44;;;6.12;89.80
40954;BME280;26686;50.130;8.710;2023-02-01T01:15:18;100601.59;;;6.08;90.00
40954;BME280;26686;50.130;8.710;2023-02-01T01:20:20;100585.56;;;6.11;90.01
40954;BME280;26686;50.130;8.710;2023-02-01T01:25:23;100587.13;;;6.15;89.35
40954;BME280;26686;50.130;8.710;2023-02-01T01:30:24;100589.66;;;6.16;88.82
40954;BME280;26686;50.130;8.710;2023-02-01T01:35:26;100580.81;;;6.17;88.79
40954;BME280;26686;50.130;8.710;2023-02-01T01:40:28;100586.94;;;6.18;88.95
40954;BME280;26686;50.130;8.710;2023-02-01T01:45:32;100585.50;;;6.12;89.64
40954;BME280;26686;50.130;8.710;2023-02-01T01:50:44;100573.59;;;6.05;90.07
40954;BME280;26686;50.130;8.710;2023-02-01T01:55:50;100575.19;;;6.08;90.54
40954;BME280;26686;50.130;8.710;2023-02-01T02:00:53;100587.56;;;6.07;90.71
40954;BME280;26686;50.130;8.710;2023-02-01T02:05:57;100571.03;;;6.04;91.13
40954;BME280;26686;50.130;8.710;2023-02-01T02:11:00;100559.16;;;6.11;91.14
40954;BME280;26686;50.130;8.710;2023-02-01T02:38:33;100570.50;;;6.13;93.09
40954;BME280;26686;50.130;8.710;2023-02-01T02:43:50;100568.03;;;6.10;93.83
40954;BME280;26686;50.130;8.710;2023-02-01T02:49:23;100577.47;;;6.14;94.10
40954;BME280;26686;50.130;8.710;2023-02-01T02:54:36;100567.25;;;6.08;94.54
40954;BME280;26686;50.130;8.710;2023-02-01T02:59:48;100526.34;;;5.83;94.90
40954;BME280;26686;50.130;8.710;2023-02-01T03:05:08;100558.75;;;6.03;94.79
40954;BME280;26686;50.130;8.710;2023-02-01T03:10:17;100553.94;;;6.09;94.75
40954;BME280;26686;50.130;8.710;2023-02-01T03:15:26;100544.25;;;6.10;95.13
40954;BME280;26686;50.130;8.710;2023-02-01T03:20:31;100540.81;;;6.08;95.17
40954;BME280;26686;50.130;8.710;2023-02-01T03:25:34;100544.34;;;6.08;95.43
40954;BME280;26686;50.130;8.710;2023-02-01T03:30:38;100536.50;;;6.07;95.10
40954;BME280;26686;50.130;8.710;2023-02-01T03:40:56;100527.34;;;6.12;94.25
40954;BME280;26686;50.130;8.710;2023-02-01T03:46:02;100523.94;;;6.10;94.06
40954;BME280;26686;50.130;8.710;2023-02-01T03:51:08;100529.31;;;6.09;94.29
40954;BME280;26686;50.130;8.710;2023-02-01T03:56:10;100527.53;;;6.09;94.07
40954;BME280;26686;50.130;8.710;2023-02-01T04:01:12;100517.03;;;6.08;94.15
40954;BME280;26686;50.130;8.710;2023-02-01T04:06:14;100510.34;;;6.02;93.83
40954;BME280;26686;50.130;8.710;2023-02-01T04:11:15;100504.19;;;6.01;93.99
40954;BME280;26686;50.130;8.710;2023-02-01T04:16:17;100519.00;;;6.04;94.35
40954;BME280;26686;50.130;8.710;2023-02-01T04:21:18;100523.09;;;6.10;94.43
40954;BME280;26686;50.130;8.710;2023-02-01T04:26:20;100515.44;;;6.05;94.37
40954;BME280;26686;50.130;8.710;2023-02-01T04:31:22;100511.00;;;6.06;94.89
40954;BME280;26686;50.130;8.710;2023-02-01T04:36:27;100521.97;;;6.14;94.38
40954;BME280;26686;50.130;8.710;2023-02-01T04:41:28;100535.00;;;6.17;94.12
40954;BME280;26686;50.130;8.710;2023-02-01T04:46:30;100524.59;;;6.14;93.06
40954;BME280;26686;50.130;8.710;2023-02-01T04:51:31;100525.78;;;6.24;92.95
40954;BME280;26686;50.130;8.710;2023-02-01T04:56:34;100479.78;;;5.96;93.27
40954;BME280;26686;50.130;8.710;2023-02-01T05:01:38;100501.41;;;6.19;93.09
40954;BME280;26686;50.130;8.710;2023-02-01T05:06:39;100517.38;;;6.17;93.59
40954;BME280;26686;50.130;8.710;2023-02-01T05:11:41;100518.81;;;6.23;93.50
40954;BME280;26686;50.130;8.710;2023-02-01T05:17:01;100512.56;;;6.24;93.29
40954;BME280;26686;50.130;8.710;2023-02-01T05:22:02;100506.53;;;6.22;93.03
40954;BME280;26686;50.130;8.710;2023-02-01T05:27:04;100502.44;;;6.16;93.55
40954;BME280;26686;50.130;8.710;2023-02-01T05:32:05;100514.72;;;6.17;93.50
40954;BME280;26686;50.130;8.710;2023-02-01T05:37:22;100520.69;;;6.21;92.68
40954;BME280;26686;50.130;8.710;2023-02-01T05:42:23;100518.81;;;6.23;92.18
40954;BME280;26686;50.130;8.710;2023-02-01T05:47:25;100508.81;;;6.28;91.49
40954;BME280;26686;50.130;8.710;2023-02-01T05:52:26;100505.16;;;6.31;90.92
40954;BME280;26686;50.130;8.710;2023-02-01T05:57:28;100499.16;;;6.27;90.84
40954;BME280;26686;50.130;8.710;2023-02-01T06:02:30;100481.81;;;6.23;90.17
40954;BME280;26686;50.130;8.710;2023-02-01T06:07:32;100477.56;;;6.05;90.26
40954;BME280;26686;50.130;8.710;2023-02-01T06:12:33;100485.84;;;5.98;90.02
40954;BME280;26686;50.130;8.710;2023-02-01T06:17:35;100491.94;;;6.00;89.38
40954;BME280;26686;50.130;8.710;2023-02-01T06:22:37;100469.91;;;6.00;88.01
40954;BME280;26686;50.130;8.710;2023-02-01T06:27:38;100483.56;;;6.08;86.71
40954;BME280;26686;50.130;8.710;2023-02-01T06:32:40;100488.75;;;6.10;86.61
40954;BME280;26686;50.130;8.710;2023-02-01T06:37:41;100482.13;;;6.17;86.58
40954;BME280;26686;50.130;8.710;2023-02-01T06:42:43;100481.00;;;6.07;87.06
40954;BME280;26686;50.130;8.710;2023-02-01T06:47:44;100489.75;;;5.91;87.86
40954;BME280;26686;50.130;8.710;2023-02-01T06:52:46;100484.56;;;5.90;87.31
40954;BME280;26686;50.130;8.710;2023-02-01T06:57:47;100492.94;;;5.82;87.74
40954;BME280;26686;50.130;8.710;2023-02-01T07:02:50;100505.28;;;5.81;86.35
40954;BME280;26686;50.130;8.710;2023-02-01T07:07:51;100496.50;;;5.81;85.73
40954;BME280;26686;50.130;8.710;2023-02-01T07:12:56;100489.34;;;5.83;85.12
40954;BME280;26686;50.130;8.710;2023-02-01T07:17:58;100481.44;;;5.83;84.51
40954;BME280;26686;50.130;8.710;2023-02-01T07:22:59;100475.78;;;5.89;82.55
40954;BME280;26686;50.130;8.710;2023-02-01T07:28:01;100489.56;;;5.94;81.81
40954;BME280;26686;50.130;8.710;2023-02-01T07:33:02;100482.25;;;6.46;84.90
40954;BME280;26686;50.130;8.710;2023-02-01T07:38:04;100504.97;;;6.34;78.92
40954;BME280;26686;50.130;8.710;2023-02-01T07:43:05;100516.75;;;6.28;78.21
40954;BME280;26686;50.130;8.710;2023-02-01T07:48:09;100534.72;;;6.37;77.88
40954;BME280;26686;50.130;8.710;2023-02-01T07:53:10;100536.25;;;6.42;75.99
40954;BME280;26686;50.130;8.710;2023-02-01T07:58:11;100548.72;;;6.40;75.55
40954;BME280;26686;50.130;8.710;2023-02-01T08:03:13;100520.47;;;6.40;74.67
40954;BME280;26686;50.130;8.710;2023-02-01T08:08:17;100530.69;;;6.46;74.51
40954;BME280;26686;50.130;8.710;2023-02-01T08:13:18;100541.06;;;6.49;73.90
40954;BME280;26686;50.130;8.710;2023-02-01T08:18:20;100550.44;;;6.55;73.19
40954;BME280;26686;50.130;8.710;2023-02-01T08:23:22;100551.19;;;6.57;73.40
40954;BME280;26686;50.130;8.710;2023-02-01T08:28:24;100554.22;;;6.51;73.19
40954;BME280;26686;50.130;8.710;2023-02-01T08:33:25;100555.38;;;6.61;73.77
40954;BME280;26686;50.130;8.710;2023-02-01T08:38:27;100565.59;;;6.67;73.18
40954;BME280;26686;50.130;8.710;2023-02-01T08:43:28;100572.53;;;6.54;72.96
40954;BME280;26686;50.130;8.710;2023-02-01T08:48:30;100564.88;;;6.49;72.95
40954;BME280;26686;50.130;8.710;2023-02-01T08:53:32;100566.50;;;6.52;72.84
40954;BME280;26686;50.130;8.710;2023-02-01T08:58:34;100571.78;;;6.52;72.64
40954;BME280;26686;50.130;8.710;2023-02-01T09:03:35;100562.75;;;6.56;71.96
40954;BME280;26686;50.130;8.710;2023-02-01T09:08:38;100557.94;;;6.63;71.41
40954;BME280;26686;50.130;8.710;2023-02-01T09:13:42;100572.19;;;6.60;71.38
40954;BME280;26686;50.130;8.710;2023-02-01T09:18:44;100570.88;;;6.67;71.05
40954;BME280;26686;50.130;8.710;2023-02-01T09:24:05;100574.63;;;6.63;70.46
40954;BME280;26686;50.130;8.710;2023-02-01T09:29:07;100595.63;;;6.66;70.01
40954;BME280;26686;50.130;8.710;2023-02-01T09:34:12;100600.91;;;6.66;69.83
40954;BME280;26686;50.130;8.710;2023-02-01T09:39:13;100617.19;;;6.75;69.58
40954;BME280;26686;50.130;8.710;2023-02-01T09:49:45;100631.19;;;6.77;68.37
40954;BME280;26686;50.130;8.710;2023-02-01T09:54:55;100635.00;;;6.87;68.09
40954;BME280;26686;50.130;8.710;2023-02-01T10:00:12;100617.78;;;6.80;67.67
40954;BME280;26686;50.130;8.710;2023-02-01T10:05:23;100625.53;;;6.83;67.35
40954;BME280;26686;50.130;8.710;2023-02-01T10:10:37;100610.63;;;6.82;66.88
40954;BME280;26686;50.130;8.710;2023-02-01T10:16:13;100623.38;;;6.89;67.31
40954;BME280;26686;50.130;8.710;2023-02-01T10:21:39;100622.44;;;6.90;65.85
40954;BME280;26686;50.130;8.710;2023-02-01T10:26:49;100619.34;;;6.98;65.58
40954;BME280;26686;50.130;8.710;2023-02-01T10:31:56;100597.97;;;7.01;65.47
40954;BME280;26686;50.130;8.710;2023-02-01T10:37:13;100579.28;;;7.04;64.81
40954;BME280;26686;50.130;8.710;2023-02-01T10:42:23;100592.22;;;7.09;64.67
40954;BME280;26686;50.130;8.710;2023-02-01T10:47:25;100549.28;;;6.89;65.42
40954;BME280;26686;50.130;8.710;2023-02-01T10:57:35;100573.78;;;7.07;64.86
40954;BME280;26686;50.130;8.710;2023-02-01T11:02:37;100573.38;;;6.99;65.15
40954;BME280;26686;50.130;8.710;2023-02-01T11:07:39;100568.28;;;6.96;65.26
40954;BME280;26686;50.130;8.710;2023-02-01T11:12:53;100570.56;;;7.02;65.67
40954;BME280;26686;50.130;8.710;2023-02-01T11:17:55;100573.50;;;7.12;65.35
40954;BME280;26686;50.130;8.710;2023-02-01T11:22:57;100535.59;;;6.97;65.41
40954;BME280;26686;50.130;8.710;2023-02-01T11:27:59;100554.84;;;6.99;65.24
40954;BME280;26686;50.130;8.710;2023-02-01T11:33:02;100555.72;;;7.00;65.48
40954;BME280;26686;50.130;8.710;2023-02-01T11:38:22;100556.09;;;7.08;65.76
40954;BME280;26686;50.130;8.710;2023-02-01T11:43:26;100552.13;;;7.01;66.03
40954;BME280;26686;50.130;8.710;2023-02-01T11:48:32;100543.06;;;7.05;66.25
40954;BME280;26686;50.130;8.710;2023-02-01T11:53:41;100549.00;;;7.08;65.99
40954;BME280;26686;50.130;8.710;2023-02-01T12:04:52;100530.94;;;7.01;65.59
40954;BME280;26686;50.130;8.710;2023-02-01T12:10:15;100522.53;;;7.08;66.08
40954;BME280;26686;50.130;8.710;2023-02-01T12:15:45;100523.84;;;7.16;66.08
40954;BME280;26686;50.130;8.710;2023-02-01T12:31:38;100525.19;;;7.23;65.21
40954;BME280;26686;50.130;8.710;2023-02-01T12:42:10;100521.59;;;7.24;66.07
40954;BME280;26686;50.130;8.710;2023-02-01T12:47:26;100502.19;;;7.23;66.32
40954;BME280;26686;50.130;8.710;2023-02-01T12:52:34;100501.00;;;7.15;66.85
40954;BME280;26686;50.130;8.710;2023-02-01T12:57:43;100491.06;;;7.18;66.75
40954;BME280;26686;50.130;8.710;2023-02-01T13:02:56;100498.06;;;7.19;66.36
40954;BME280;26686;50.130;8.710;2023-02-01T13:08:10;100472.81;;;7.14;66.52
40954;BME280;26686;50.130;8.710;2023-02-01T13:18:20;100478.47;;;7.22;66.06
40954;BME280;26686;50.130;8.710;2023-02-01T13:23:29;100472.88;;;7.26;66.16
40954;BME280;26686;50.130;8.710;2023-02-01T13:28:47;100465.81;;;7.27;66.45
40954;BME280;26686;50.130;8.710;2023-02-01T13:40:03;100465.41;;;7.33;65.39
40954;BME280;26686;50.130;8.710;2023-02-01T13:45:15;100457.81;;;7.41;64.71
40954;BME280;26686;50.130;8.710;2023-02-01T14:00:37;100453.19;;;7.45;64.72
40954;BME280;26686;50.130;8.710;2023-02-01T14:10:51;100431.69;;;7.50;64.62
40954;BME280;26686;50.130;8.710;2023-02-01T14:31:52;100416.56;;;7.92;62.76
40954;BME280;26686;50.130;8.710;2023-02-01T14:37:00;100422.06;;;7.89;61.14
40954;BME280;26686;50.130;8.710;2023-02-01T14:42:13;100411.94;;;8.08;60.69
40954;BME280;26686;50.130;8.710;2023-02-01T14:47:27;100411.53;;;8.27;59.03
40954;BME280;26686;50.130;8.710;2023-02-01T14:52:43;100401.66;;;8.29;58.58
40954;BME280;26686;50.130;8.710;2023-02-01T14:57:47;100418.13;;;8.73;57.27
40954;BME280;26686;50.130;8.710;2023-02-01T15:02:52;100369.94;;;8.15;58.18
40954;BME280;26686;50.130;8.710;2023-02-01T15:07:54;100416.50;;;9.09;56.11
40954;BME280;26686;50.130;8.710;2023-02-01T15:12:55;100416.88;;;8.66;57.08
40954;BME280;26686;50.130;8.710;2023-02-01T15:17:58;100415.56;;;8.33;57.97
40954;BME280;26686;50.130;8.710;2023-02-01T15:23:04;100413.66;;;8.09;59.04
40954;BME280;26686;50.130;8.710;2023-02-01T15:28:12;100406.28;;;7.87;59.60
40954;BME280;26686;50.130;8.710;2023-02-01T15:33:15;100413.19;;;7.90;59.95
40954;BME280;26686;50.130;8.710;2023-02-01T15:38:30;100398.53;;;7.84;60.40
40954;BME280;26686;50.130;8.710;2023-02-01T15:43:42;100408.47;;;7.81;60.87
40954;BME280;26686;50.130;8.710;2023-02-01T15:48:48;100421.44;;;7.85;61.28
40954;BME280;26686;50.130;8.710;2023-02-01T15:54:04;100435.53;;;7.86;61.14
40954;BME280;26686;50.130;8.710;2023-02-01T15:59:16;100427.78;;;7.83;61.25
40954;BME280;26686;50.130;8.710;2023-02-01T16:04:26;100437.09;;;7.75;62.02
40954;BME280;26686;50.130;8.710;2023-02-01T16:09:37;100449.19;;;7.79;62.47
40954;BME280;26686;50.130;8.710;2023-02-01T16:14:39;100450.97;;;7.79;63.19
40954;BME280;26686;50.130;8.710;2023-02-01T16:19:41;100437.09;;;7.75;63.62
40954;BME280;26686;50.130;8.710;2023-02-01T16:24:43;100447.34;;;7.67;63.79
40954;BME280;26686;50.130;8.710;2023-02-01T16:29:44;100444.31;;;7.73;64.16
40954;BME280;26686;50.130;8.710;2023-02-01T16:34:46;100444.69;;;7.67;64.06
40954;BME280;26686;50.130;8.710;2023-02-01T16:39:48;100434.56;;;7.59;64.55
40954;BME280;26686;50.130;8.710;2023-02-01T16:44:49;100431.94;;;7.59;64.26
40954;BME280;26686;50.130;8.710;2023-02-01T16:49:51;100435.78;;;7.68;64.39
40954;BME280;26686;50.130;8.710;2023-02-01T16:54:53;100441.84;;;7.70;64.46
40954;BME280;26686;50.130;8.710;2023-02-01T16:59:54;100434.09;;;7.67;64.26
40954;BME280;26686;50.130;8.710;2023-02-01T17:04:55;100410.50;;;7.50;64.63
40954;BME280;26686;50.130;8.710;2023-02-01T17:09:57;100416.75;;;7.49;64.46
40954;BME280;26686;50.130;8.710;2023-02-01T17:14:59;100412.59;;;7.44;65.28
40954;BME280;26686;50.130;8.710;2023-02-01T17:20:02;100429.34;;;7.45;65.31
40954;BME280;26686;50.130;8.710;2023-02-01T17:25:13;100435.69;;;7.42;66.13
40954;BME280;26686;50.130;8.710;2023-02-01T17:30:14;100439.47;;;7.38;66.48
40954;BME280;26686;50.130;8.710;2023-02-01T17:35:22;100439.28;;;7.41;66.93
40954;BME280;26686;50.130;8.710;2023-02-01T17:40:25;100436.91;;;7.37;67.52
40954;BME280;26686;50.130;8.710;2023-02-01T17:45:34;100450.84;;;7.26;68.49
40954;BME280;26686;50.130;8.710;2023-02-01T17:50:37;100468.31;;;7.43;68.76
40954;BME280;26686;50.130;8.710;2023-02-01T17:55:42;100455.16;;;7.41;69.57
40954;BME280;26686;50.130;8.710;2023-02-01T18:00:46;100456.88;;;7.42;70.59
40954;BME280;26686;50.130;8.710;2023-02-01T18:05:48;100468.78;;;7.35;71.96
40954;BME280;26686;50.130;8.710;2023-02-01T18:10:59;100468.25;;;7.16;72.97
40954;BME280;26686;50.130;8.710;2023-02-01T18:16:01;100468.53;;;7.25;74.88
40954;BME280;26686;50.130;8.710;2023-02-01T18:21:04;100473.47;;;7.17;74.46
40954;BME280;26686;50.130;8.710;2023-02-01T18:26:10;100470.50;;;7.22;74.99
40954;BME280;26686;50.130;8.710;2023-02-01T18:31:31;100466.78;;;7.12;76.51
40954;BME280;26686;50.130;8.710;2023-02-01T18:36:34;100474.63;;;6.99;77.84
40954;BME280;26686;50.130;8.710;2023-02-01T18:41:35;100469.22;;;6.86;77.89
40954;BME280;26686;50.130;8.710;2023-02-01T18:46:37;100473.28;;;6.92;78.54
40954;BME280;26686;50.130;8.710;2023-02-01T18:51:38;100479.81;;;6.86;77.97
40954;BME280;26686;50.130;8.710;2023-02-01T18:56:40;100486.16;;;6.83;78.07
40954;BME280;26686;50.130;8.710;2023-02-01T19:01:43;100491.25;;;6.86;78.12
40954;BME280;26686;50.130;8.710;2023-02-01T19:06:45;100493.53;;;6.93;78.61
40954;BME280;26686;50.130;8.710;2023-02-01T19:11:46;100502.88;;;6.84;79.36
40954;BME280;26686;50.130;8.710;2023-02-01T19:16:48;100483.31;;;6.86;78.97
40954;BME280;26686;50.130;8.710;2023-02-01T19:21:50;100488.69;;;6.85;79.95
40954;BME280;26686;50.130;8.710;2023-02-01T19:26:52;100484.16;;;6.87;80.20
40954;BME280;26686;50.130;8.710;2023-02-01T19:31:54;100486.41;;;6.93;80.01
40954;BME280;26686;50.130;8.710;2023-02-01T19:36:55;100486.41;;;6.93;79.73
40954;BME280;26686;50.130;8.710;2023-02-01T19:41:57;100490.13;;;6.90;79.39
40954;BME280;26686;50.130;8.710;2023-02-01T19:46:59;100491.06;;;6.89;78.94
40954;BME280;26686;50.130;8.710;2023-02-01T19:52:01;100485.09;;;6.86;79.41
40954;BME280;26686;50.130;8.710;2023-02-01T19:57:03;100507.03;;;7.02;78.95
40954;BME280;26686;50.130;8.710;2023-02-01T20:02:04;100509.88;;;7.14;78.92
40954;BME280;26686;50.130;8.710;2023-02-01T20:07:06;100506.47;;;7.12;78.11
40954;BME280;26686;50.130;8.710;2023-02-01T20:12:11;100503.16;;;7.22;78.06
40954;BME280;26686;50.130;8.710;2023-02-01T20:17:14;100491.50;;;7.25;77.22
40954;BME280;26686;50.130;8.710;2023-02-01T20:22:16;100490.56;;;7.26;76.58
40954;BME280;26686;50.130;8.710;2023-02-01T20:27:17;100481.88;;;7.24;76.53
40954;BME280;26686;50.130;8.710;2023-02-01T20:32:19;100483.94;;;7.19;76.12
40954;BME280;26686;50.130;8.710;2023-02-01T20:37:20;100488.13;;;7.23;76.03
40954;BME280;26686;50.130;8.710;2023-02-01T20:42:22;100492.81;;;7.32;75.46
40954;BME280;26686;50.130;8.710;2023-02-01T20:47:23;100503.22;;;7.35;75.17
40954;BME280;26686;50.130;8.710;2023-02-01T20:52:25;100496.06;;;7.37;74.91
40954;BME280;26686;50.130;8.710;2023-02-01T20:57:26;100496.25;;;7.34;75.21
40954;BME280;26686;50.130;8.710;2023-02-01T21:02:27;100491.78;;;7.35;74.59
40954;BME280;26686;50.130;8.710;2023-02-01T21:07:29;100493.59;;;7.34;73.83
40954;BME280;26686;50.130;8.710;2023-02-01T21:12:30;100491.16;;;7.31;74.40
40954;BME280;26686;50.130;8.710;2023-02-01T21:17:32;100480.66;;;7.30;73.82
40954;BME280;26686;50.130;8.710;2023-02-01T21:22:33;100479.88;;;7.28;73.28
40954;BME280;26686;50.130;8.710;2023-02-01T21:27:35;100494.53;;;7.33;73.53
40954;BME280;26686;50.130;8.710;2023-02-01T21:32:36;100502.78;;;7.29;73.43
40954;BME280;26686;50.130;8.710;2023-02-01T21:37:38;100491.50;;;7.25;73.30
40954;BME280;26686;50.130;8.710;2023-02-01T21:42:39;100493.78;;;7.17;73.22
40954;BME280;26686;50.130;8.710;2023-02-01T21:47:43;100513.84;;;7.21;73.48
40954;BME280;26686;50.130;8.710;2023-02-01T21:52:45;100508.56;;;7.21;73.30
40954;BME280;26686;50.130;8.710;2023-02-01T21:57:46;100509.09;;;7.26;72.66
40954;BME280;26686;50.130;8.710;2023-02-01T22:02:47;100509.88;;;7.28;73.27
40954;BME280;26686;50.130;8.710;2023-02-01T22:07:49;100515.25;;;7.26;73.17
40954;BME280;26686;50.130;8.710;2023-02-01T22:12:50;100511.56;;;7.29;72.64
40954;BME280;26686;50.130;8.710;2023-02-01T22:17:52;100533.72;;;7.28;72.79
40954;BME280;26686;50.130;8.710;2023-02-01T22:22:54;100530.88;;;7.31;72.59
40954;BME280;26686;50.130;8.710;2023-02-01T22:27:56;100526.13;;;7.22;72.80
40954;BME280;26686;50.130;8.710;2023-02-01T22:33:18;100525.00;;;7.26;72.67
40954;BME280;26686;50.130;8.710;2023-02-01T22:38:19;100522.91;;;7.31;72.96
40954;BME280;26686;50.130;8.710;2023-02-01T22:43:21;100517.03;;;7.26;72.34
40954;BME280;26686;50.130;8.710;2023-02-01T22:48:23;100536.41;;;7.26;73.22
40954;BME280;26686;50.130;8.710;2023-02-01T22:53:25;100540.31;;;7.35;74.55
40954;BME280;26686;50.130;8.710;2023-02-01T22:58:27;100545.59;;;7.35;74.38
40954;BME280;26686;50.130;8.710;2023-02-01T23:03:28;100545.59;;;7.35;74.87
40954;BME280;26686;50.130;8.710;2023-02-01T23:08:30;100540.59;;;7.31;74.63
40954;BME280;26686;50.130;8.710;2023-02-01T23:13:35;100536.34;;;7.28;74.46
40954;BME280;26686;50.130;8.710;2023-02-01T23:18:37;100535.88;;;7.21;74.79
40954;BME280;26686;50.130;8.710;2023-02-01T23:23:39;100536.34;;;7.28;74.60
40954;BME280;26686;50.130;8.710;2023-02-01T23:28:45;100530.28;;;7.26;75.00
40954;BME280;26686;50.130;8.710;2023-02-01T23:33:47;100528.88;;;7.20;75.43
40954;BME280;26686;50.130;8.710;2023-02-01T23:38:50;100497.22;;;7.04;75.64
40954;BME280;26686;50.130;8.710;2023-02-01T23:43:51;100530.28;;;7.26;75.83
40954;BME280;26686;50.130;8.710;2023-02-01T23:49:00;100526.03;;;7.23;76.33
40954;BME280;26686;50.130;8.710;2023-02-01T23:54:01;100543.34;;;7.29;76.21
40954;BME280;26686;50.130;8.710;2023-02-01T23:59:08;100544.47;;;7.25;76.65
